Time;durP1;ratioP1;P1;durP2;ratioP2;P2;SDS_P1;SDS_P2;PMS_P1;PMS_P2;Temp;Humidity;BMP_temperature;BMP_pressure;BME280_temperature;BME280_humidity;BME280_pressure;Samples;Min_cycle;Max_cycle;Signal;HPM_P1;HPM_P2
2023/08/31 00:02:04;;;;;;;4.25;2.75;;;;;;;;;;5010499;28;20425;-60
2023/08/31 00:04:31;;;;;;;4.15;2.63;;;;;;;;;;5013387;28;20041;-60
2023/08/31 00:06:57;;;;;;;4.20;2.58;;;;;;;;;;4992333;28;20542;-60
2023/08/31 00:09:24;;;;;;;6.63;3.40;;;;;;;;;;5007594;28;20037;-60
2023/08/31 00:11:51;;;;;;;6.80;3.22;;;;;;;;;;5008999;28;20052;-60
2023/08/31 00:14:17;;;;;;;7.80;3.08;;;;;;;;;;5009159;28;20034;-60
2023/08/31 00:16:45;;;;;;;7.43;3.33;;;;;;;;;;4991724;28;20133;-60
2023/08/31 00:19:14;;;;;;;7.95;3.40;;;;;;;;;;5009424;28;20041;-60
2023/08/31 00:21:40;;;;;;;6.82;3.05;;;;;;;;;;5005657;28;20046;-61
2023/08/31 00:24:09;;;;;;;6.05;3.28;;;;;;;;;;5004056;28;20418;-61
2023/08/31 00:26:40;;;;;;;6.28;2.97;;;;;;;;;;5007904;28;20043;-60
2023/08/31 00:29:07;;;;;;;6.35;3.08;;;;;;;;;;5009287;28;20042;-61
2023/08/31 00:31:33;;;;;;;8.30;3.25;;;;;;;;;;4989493;28;20042;-61
2023/08/31 00:34:04;;;;;;;5.18;3.30;;;;;;;;;;5012073;28;20050;-61
2023/08/31 00:36:31;;;;;;;5.60;3.13;;;;;;;;;;5003867;28;20060;-61
2023/08/31 00:38:57;;;;;;;7.38;3.47;;;;;;;;;;4990531;28;20034;-61
2023/08/31 00:41:23;;;;;;;8.75;3.40;;;;;;;;;;4993278;28;20048;-60
2023/08/31 00:43:50;;;;;;;6.70;3.25;;;;;;;;;;5011425;28;20033;-61
2023/08/31 00:46:16;;;;;;;5.65;2.75;;;;;;;;;;4992502;28;20038;-60
2023/08/31 00:48:44;;;;;;;5.25;3.05;;;;;;;;;;4975259;28;20049;-60
2023/08/31 00:51:10;;;;;;;7.40;2.92;;;;;;;;;;4996096;28;20031;-61
2023/08/31 00:53:37;;;;;;;6.70;3.10;;;;;;;;;;5003258;28;20449;-61
2023/08/31 00:56:03;;;;;;;8.73;3.38;;;;;;;;;;5014953;28;20425;-60
2023/08/31 00:58:30;;;;;;;5.50;3.22;;;;;;;;;;5011487;28;20084;-61
2023/08/31 01:01:20;;;;;;;5.80;2.58;;;;;;;;;;4999563;28;20037;-61
2023/08/31 01:04:10;;;;;;;8.02;3.13;;;;;;;;;;5009199;28;20596;-60
2023/08/31 01:06:59;;;;;;;5.75;2.95;;;;;;;;;;4983312;28;20497;-60
2023/08/31 01:09:39;;;;;;;7.13;3.20;;;;;;;;;;4997012;28;20061;-61
2023/08/31 01:12:06;;;;;;;;;;;;;;;;;;4989987;28;20049;-61
2023/08/31 01:14:39;;;;;;;4.53;2.60;;;;;;;;;;5003659;28;19936;-61
2023/08/31 01:17:08;;;;;;;5.38;3.42;;;;;;;;;;4984852;28;20030;-61
2023/08/31 01:19:51;;;;;;;6.90;3.20;;;;;;;;;;4983925;28;20046;-61
2023/08/31 01:22:37;;;;;;;7.97;3.33;;;;;;;;;;4976662;28;20042;-60
2023/08/31 01:25:05;;;;;;;7.18;3.35;;;;;;;;;;4993886;28;20029;-61
2023/08/31 01:27:32;;;;;;;6.85;3.60;;;;;;;;;;5011452;28;20046;-60
2023/08/31 01:29:58;;;;;;;7.22;3.60;;;;;;;;;;4993392;28;20036;-61
2023/08/31 01:32:24;;;;;;;7.28;3.60;;;;;;;;;;5011940;28;20029;-60
2023/08/31 01:34:54;;;;;;;6.13;3.58;;;;;;;;;;5012741;28;20030;-61
2023/08/31 01:37:52;;;;;;;5.30;3.40;;;;;;;;;;5000032;28;20172;-60
2023/08/31 01:40:32;;;;;;;5.25;3.30;;;;;;;;;;5006673;28;20054;-60
2023/08/31 01:42:58;;;;;;;;;;;;;;;;;;5004803;28;20115;-61
2023/08/31 01:45:25;;;;;;;6.13;3.45;;;;;;;;;;5005656;28;19913;-61
2023/08/31 01:47:52;;;;;;;7.40;3.42;;;;;;;;;;5007201;28;20038;-60
2023/08/31 01:50:18;;;;;;;6.65;3.40;;;;;;;;;;4988553;28;20054;-60
2023/08/31 01:52:45;;;;;;;4.68;2.80;;;;;;;;;;5012556;28;20071;-61
2023/08/31 01:55:15;;;;;;;7.05;3.95;;;;;;;;;;4985272;28;20041;-61
2023/08/31 01:57:42;;;;;;;6.60;3.38;;;;;;;;;;5010091;28;20037;-60
2023/08/31 02:00:14;;;;;;;6.63;3.33;;;;;;;;;;4993035;28;20457;-61
2023/08/31 02:02:43;;;;;;;5.32;2.90;;;;;;;;;;5014994;28;20030;-60
2023/08/31 02:05:09;;;;;;;5.35;2.97;;;;;;;;;;4989371;28;20033;-61
2023/08/31 02:07:36;;;;;;;5.35;3.25;;;;;;;;;;4982443;28;20042;-60
2023/08/31 02:10:06;;;;;;;5.13;3.22;;;;;;;;;;4989505;28;20417;-61
2023/08/31 02:12:32;;;;;;;;;;;;;;;;;;4984976;28;20042;-60
2023/08/31 02:14:59;;;;;;;6.72;2.65;;;;;;;;;;5007023;28;19914;-61
2023/08/31 02:17:26;;;;;;;6.75;3.03;;;;;;;;;;4982644;28;20034;-61
2023/08/31 02:19:53;;;;;;;8.68;3.03;;;;;;;;;;4987799;28;20498;-60
2023/08/31 02:22:19;;;;;;;5.93;3.17;;;;;;;;;;4989506;28;20042;-61
2023/08/31 02:24:47;;;;;;;5.70;3.13;;;;;;;;;;5008354;28;20041;-60
2023/08/31 02:27:13;;;;;;;5.00;3.00;;;;;;;;;;5001926;28;20212;-61
2023/08/31 02:29:39;;;;;;;5.30;3.10;;;;;;;;;;4990988;28;20575;-60
2023/08/31 02:32:06;;;;;;;5.53;3.22;;;;;;;;;;4988414;28;20057;-60
2023/08/31 02:34:33;;;;;;;4.63;3.20;;;;;;;;;;4993645;28;20049;-60
2023/08/31 02:36:59;;;;;;;9.57;2.75;;;;;;;;;;5000936;28;20049;-61
2023/08/31 02:39:27;;;;;;;7.28;3.72;;;;;;;;;;4999468;28;20041;-60
2023/08/31 02:41:54;;;;;;;7.35;3.40;;;;;;;;;;5006169;28;20034;-61
2023/08/31 02:44:20;;;;;;;7.45;3.05;;;;;;;;;;5002785;28;20058;-61
2023/08/31 02:46:46;;;;;;;7.00;3.47;;;;;;;;;;4989882;28;20049;-61
2023/08/31 02:49:13;;;;;;;10.40;3.55;;;;;;;;;;4955189;28;1131433;-60
2023/08/31 02:51:41;;;;;;;7.95;3.20;;;;;;;;;;4996013;28;20433;-61
2023/08/31 02:54:07;;;;;;;8.60;3.13;;;;;;;;;;5006337;28;20421;-61
2023/08/31 02:56:33;;;;;;;9.10;3.72;;;;;;;;;;4999947;28;20037;-61
2023/08/31 02:58:59;;;;;;;10.18;3.80;;;;;;;;;;5009934;28;20056;-60
2023/08/31 03:01:26;;;;;;;7.28;3.35;;;;;;;;;;4997684;28;20038;-61
2023/08/31 03:03:52;;;;;;;7.68;3.50;;;;;;;;;;4985080;28;20032;-61
2023/08/31 03:06:20;;;;;;;8.30;3.30;;;;;;;;;;4980558;28;20033;-60
2023/08/31 03:08:46;;;;;;;9.68;3.85;;;;;;;;;;4991063;28;20049;-61
2023/08/31 03:11:16;;;;;;;5.93;3.42;;;;;;;;;;4984104;28;19922;-61
2023/08/31 03:13:42;;;;;;;8.77;4.55;;;;;;;;;;5005177;28;20033;-60
2023/08/31 03:16:08;;;;;;;7.30;3.70;;;;;;;;;;5001264;28;20049;-61
2023/08/31 03:18:35;;;;;;;7.30;3.70;;;;;;;;;;4966753;28;20033;-61
2023/08/31 03:21:01;;;;;;;8.23;3.95;;;;;;;;;;5007245;28;20041;-60
2023/08/31 03:23:29;;;;;;;7.15;3.78;;;;;;;;;;4991280;28;20045;-60
2023/08/31 03:25:56;;;;;;;9.85;3.90;;;;;;;;;;4993392;28;20034;-60
2023/08/31 03:28:26;;;;;;;9.38;4.55;;;;;;;;;;5009492;28;20042;-61
2023/08/31 03:30:56;;;;;;;9.52;3.72;;;;;;;;;;4992817;28;20045;-60
2023/08/31 03:33:22;;;;;;;10.07;3.88;;;;;;;;;;4987085;28;20040;-61
2023/08/31 03:35:49;;;;;;;7.13;3.67;;;;;;;;;;4993487;28;20041;-60
2023/08/31 03:38:15;;;;;;;8.00;3.88;;;;;;;;;;5008434;28;20049;-61
2023/08/31 03:40:41;;;;;;;7.40;3.88;;;;;;;;;;4993000;28;20042;-61
2023/08/31 03:43:07;;;;;;;6.45;3.58;;;;;;;;;;4997092;28;20042;-60
2023/08/31 03:45:33;;;;;;;11.70;4.22;;;;;;;;;;4994348;28;20405;-60
2023/08/31 03:47:59;;;;;;;7.38;3.75;;;;;;;;;;4987951;28;20052;-60
2023/08/31 03:50:26;;;;;;;9.30;3.80;;;;;;;;;;4988677;28;20046;-61
2023/08/31 03:52:52;;;;;;;7.38;4.15;;;;;;;;;;5013734;28;20393;-60
2023/08/31 03:55:18;;;;;;;8.07;4.15;;;;;;;;;;5013303;28;20049;-61
2023/08/31 03:57:44;;;;;;;11.35;4.38;;;;;;;;;;5014364;28;20041;-61
2023/08/31 04:00:18;;;;;;;10.15;4.07;;;;;;;;;;4987245;28;20041;-61
2023/08/31 04:02:44;;;;;;;7.75;3.47;;;;;;;;;;5011870;28;20041;-60
2023/08/31 04:05:14;;;;;;;6.80;4.20;;;;;;;;;;4983562;28;20045;-61
2023/08/31 04:07:43;;;;;;;6.43;3.50;;;;;;;;;;4993224;28;20038;-61
2023/08/31 04:10:09;;;;;;;8.57;4.53;;;;;;;;;;4987984;28;20054;-60
2023/08/31 04:12:35;;;;;;;8.38;4.13;;;;;;;;;;5004316;28;20050;-61
2023/08/31 04:15:04;;;;;;;7.10;3.55;;;;;;;;;;5004265;28;20377;-60
2023/08/31 04:17:30;;;;;;;8.35;3.97;;;;;;;;;;5015234;28;20060;-60
2023/08/31 04:19:56;;;;;;;9.52;4.25;;;;;;;;;;5004937;28;20046;-61
2023/08/31 04:22:22;;;;;;;10.43;4.32;;;;;;;;;;5012698;28;20401;-60
2023/08/31 04:24:48;;;;;;;7.95;3.70;;;;;;;;;;4990341;28;20037;-60
2023/08/31 04:27:14;;;;;;;7.55;3.85;;;;;;;;;;5006240;28;20056;-60
2023/08/31 04:29:40;;;;;;;8.27;3.67;;;;;;;;;;5003128;28;20076;-60
2023/08/31 04:32:06;;;;;;;8.73;3.78;;;;;;;;;;5008469;28;20049;-60
2023/08/31 04:34:32;;;;;;;9.32;3.78;;;;;;;;;;5013115;28;20042;-61
2023/08/31 04:36:58;;;;;;;8.88;3.90;;;;;;;;;;5012071;28;20052;-61
2023/08/31 04:39:25;;;;;;;6.38;3.10;;;;;;;;;;5010518;28;20045;-60
2023/08/31 04:41:51;;;;;;;9.23;4.90;;;;;;;;;;5008523;28;20041;-61
2023/08/31 04:44:17;;;;;;;7.60;3.80;;;;;;;;;;5014834;28;20101;-60
2023/08/31 04:46:43;;;;;;;8.68;3.53;;;;;;;;;;5006455;28;20508;-60
2023/08/31 04:49:10;;;;;;;8.73;4.15;;;;;;;;;;5003767;28;20034;-61
2023/08/31 04:51:39;;;;;;;7.75;3.30;;;;;;;;;;5005421;28;20034;-61
2023/08/31 04:54:05;;;;;;;6.75;3.72;;;;;;;;;;5008295;28;20042;-61
2023/08/31 04:56:33;;;;;;;8.48;3.92;;;;;;;;;;5007225;28;20052;-60
2023/08/31 04:59:00;;;;;;;6.45;3.28;;;;;;;;;;4998314;28;20101;-61
2023/08/31 05:01:26;;;;;;;8.52;3.80;;;;;;;;;;5010157;28;20052;-61
2023/08/31 05:03:52;;;;;;;8.63;3.58;;;;;;;;;;4999815;28;20672;-61
2023/08/31 05:06:18;;;;;;;7.93;3.60;;;;;;;;;;5008293;28;20060;-61
2023/08/31 05:08:44;;;;;;;6.68;3.33;;;;;;;;;;5001116;28;20425;-60
2023/08/31 05:11:10;;;;;;;8.25;3.90;;;;;;;;;;5006710;28;20054;-60
2023/08/31 05:13:37;;;;;;;9.15;3.47;;;;;;;;;;5006652;28;20046;-60
2023/08/31 05:16:03;;;;;;;6.90;3.50;;;;;;;;;;5005687;28;20118;-61
2023/08/31 05:18:29;;;;;;;7.00;3.72;;;;;;;;;;5006272;28;20034;-60
2023/08/31 05:20:56;;;;;;;9.18;3.70;;;;;;;;;;5008994;28;20061;-60
2023/08/31 05:23:22;;;;;;;7.68;4.00;;;;;;;;;;5011989;28;20040;-60
2023/08/31 05:25:48;;;;;;;7.70;4.60;;;;;;;;;;5013604;28;20042;-60
2023/08/31 05:28:14;;;;;;;12.35;4.47;;;;;;;;;;5000391;28;20057;-61
2023/08/31 05:30:51;;;;;;;8.70;4.63;;;;;;;;;;5002229;28;20498;-61
2023/08/31 05:33:22;;;;;;;6.75;3.53;;;;;;;;;;5005268;28;20041;-60
2023/08/31 05:35:48;;;;;;;8.93;3.90;;;;;;;;;;5014185;28;20504;-60
2023/08/31 05:38:14;;;;;;;7.72;3.70;;;;;;;;;;5004293;28;20056;-59
2023/08/31 05:40:45;;;;;;;8.88;3.50;;;;;;;;;;5007054;28;20055;-61
2023/08/31 05:43:15;;;;;;;9.93;4.15;;;;;;;;;;5009046;28;20041;-59
2023/08/31 05:45:42;;;;;;;6.30;3.70;;;;;;;;;;5016361;28;20036;-60
2023/08/31 05:48:08;;;;;;;7.15;3.67;;;;;;;;;;5011202;28;20053;-60
2023/08/31 05:50:36;;;;;;;11.50;4.20;;;;;;;;;;5014347;28;20053;-60
2023/08/31 05:53:04;;;;;;;5.78;3.75;;;;;;;;;;5013119;28;20045;-60
2023/08/31 05:55:30;;;;;;;13.60;6.90;;;;;;;;;;5007843;28;20056;-60
2023/08/31 05:57:56;;;;;;;11.82;4.90;;;;;;;;;;5013328;28;20048;-60
2023/08/31 06:00:22;;;;;;;7.85;4.30;;;;;;;;;;5010073;28;20040;-59
2023/08/31 06:02:48;;;;;;;8.30;3.88;;;;;;;;;;4998627;28;20049;-60
2023/08/31 06:05:17;;;;;;;10.68;3.60;;;;;;;;;;5000901;28;20505;-60
2023/08/31 06:07:43;;;;;;;9.73;4.00;;;;;;;;;;4996380;28;20058;-59
2023/08/31 06:10:09;;;;;;;8.02;3.58;;;;;;;;;;5010505;28;20033;-60
2023/08/31 06:12:36;;;;;;;9.55;4.00;;;;;;;;;;5001587;28;20042;-60
2023/08/31 06:15:03;;;;;;;8.35;3.90;;;;;;;;;;5003610;28;20133;-60
2023/08/31 06:17:29;;;;;;;12.07;4.07;;;;;;;;;;5004324;28;20041;-59
2023/08/31 06:19:56;;;;;;;12.02;4.15;;;;;;;;;;4992568;28;20033;-60
2023/08/31 06:22:24;;;;;;;7.97;3.60;;;;;;;;;;5010050;28;20045;-60
2023/08/31 06:24:51;;;;;;;9.75;4.30;;;;;;;;;;5004103;28;20038;-60
2023/08/31 06:27:18;;;;;;;8.38;3.50;;;;;;;;;;4988666;28;20513;-60
2023/08/31 06:29:44;;;;;;;8.45;3.67;;;;;;;;;;5000550;28;20041;-60
2023/08/31 06:32:10;;;;;;;7.95;3.65;;;;;;;;;;5002136;28;20421;-60
2023/08/31 06:34:36;;;;;;;12.43;4.20;;;;;;;;;;5011330;28;20057;-60
2023/08/31 06:37:03;;;;;;;9.75;3.92;;;;;;;;;;4993438;28;20068;-62
2023/08/31 06:39:29;;;;;;;12.48;4.00;;;;;;;;;;4999126;28;20065;-59
2023/08/31 06:41:55;;;;;;;13.05;4.22;;;;;;;;;;5007720;28;20106;-60
2023/08/31 06:44:30;;;;;;;10.57;3.80;;;;;;;;;;4990138;28;20045;-60
2023/08/31 06:46:56;;;;;;;10.65;4.03;;;;;;;;;;5006018;28;20520;-60
2023/08/31 06:49:23;;;;;;;8.57;3.60;;;;;;;;;;4997868;28;20046;-59
2023/08/31 06:51:50;;;;;;;11.98;4.65;;;;;;;;;;5010213;28;20030;-61
2023/08/31 06:54:16;;;;;;;9.05;3.67;;;;;;;;;;5015167;28;20658;-60
2023/08/31 06:56:42;;;;;;;9.57;3.90;;;;;;;;;;5018172;28;20030;-61
2023/08/31 06:59:08;;;;;;;9.05;4.20;;;;;;;;;;5013499;28;20033;-61
2023/08/31 07:01:34;;;;;;;7.40;3.15;;;;;;;;;;4980529;28;20026;-60
2023/08/31 07:04:00;;;;;;;9.70;4.18;;;;;;;;;;4991775;28;20034;-60
2023/08/31 07:06:27;;;;;;;8.48;3.78;;;;;;;;;;5002278;28;20050;-61
2023/08/31 07:09:05;;;;;;;7.90;3.35;;;;;;;;;;5007107;28;20057;-61
2023/08/31 07:11:31;;;;;;;9.60;3.40;;;;;;;;;;5006181;28;20050;-61
2023/08/31 07:13:57;;;;;;;10.70;3.70;;;;;;;;;;4991440;28;20049;-61
2023/08/31 07:16:23;;;;;;;9.80;4.28;;;;;;;;;;5005501;28;20034;-61
2023/08/31 07:18:49;;;;;;;6.75;3.50;;;;;;;;;;5002105;28;20050;-61
2023/08/31 07:21:15;;;;;;;9.40;4.47;;;;;;;;;;4991923;28;20042;-61
2023/08/31 07:23:42;;;;;;;6.45;3.65;;;;;;;;;;5011092;28;20033;-60
2023/08/31 07:26:08;;;;;;;6.32;3.22;;;;;;;;;;5005267;28;20041;-60
2023/08/31 07:28:34;;;;;;;7.68;3.50;;;;;;;;;;5009279;28;20042;-60
2023/08/31 07:31:03;;;;;;;7.45;3.65;;;;;;;;;;5008589;28;20038;-61
2023/08/31 07:33:31;;;;;;;7.18;3.58;;;;;;;;;;4993147;28;20073;-61
2023/08/31 07:35:58;;;;;;;8.55;4.00;;;;;;;;;;5018675;28;20030;-61
2023/08/31 07:38:26;;;;;;;6.20;3.80;;;;;;;;;;5012124;28;20038;-62
2023/08/31 07:40:53;;;;;;;6.50;3.90;;;;;;;;;;5013458;28;20026;-63
2023/08/31 07:43:19;;;;;;;9.85;4.00;;;;;;;;;;5008827;28;20041;-62
2023/08/31 07:45:45;;;;;;;9.15;3.47;;;;;;;;;;5016053;28;20432;-62
2023/08/31 07:48:11;;;;;;;7.03;3.30;;;;;;;;;;5011757;28;20041;-63
2023/08/31 07:50:39;;;;;;;7.22;3.50;;;;;;;;;;5014496;28;20400;-62
2023/08/31 07:53:06;;;;;;;8.20;3.25;;;;;;;;;;5018017;28;20041;-61
2023/08/31 07:55:32;;;;;;;7.47;3.33;;;;;;;;;;5021836;28;20528;-62
2023/08/31 07:57:58;;;;;;;6.38;3.20;;;;;;;;;;5019623;28;20041;-61
2023/08/31 08:00:24;;;;;;;10.15;3.20;;;;;;;;;;5002237;28;20136;-61
2023/08/31 08:02:50;;;;;;;8.00;3.15;;;;;;;;;;5000327;28;20054;-62
2023/08/31 08:05:16;;;;;;;10.65;3.33;;;;;;;;;;5009201;28;20495;-61
2023/08/31 08:07:42;;;;;;;8.30;2.80;;;;;;;;;;5003796;28;20034;-61
2023/08/31 08:10:09;;;;;;;8.57;3.00;;;;;;;;;;5010263;28;20045;-61
2023/08/31 08:12:46;;;;;;;8.95;2.92;;;;;;;;;;5003953;28;20086;-61
2023/08/31 08:15:12;;;;;;;4.15;2.55;;;;;;;;;;5009088;28;20512;-62
2023/08/31 08:17:39;;;;;;;12.48;3.20;;;;;;;;;;4984887;28;20030;-61
2023/08/31 08:20:06;;;;;;;7.93;3.42;;;;;;;;;;5011675;28;20049;-62
2023/08/31 08:22:32;;;;;;;8.70;3.17;;;;;;;;;;5004445;28;20041;-61
2023/08/31 08:25:02;;;;;;;7.55;3.08;;;;;;;;;;5009988;28;20064;-62
2023/08/31 08:27:31;;;;;;;8.95;3.22;;;;;;;;;;5007291;28;20026;-61
2023/08/31 08:29:57;;;;;;;6.85;2.65;;;;;;;;;;5013295;28;20041;-61
2023/08/31 08:32:23;;;;;;;6.03;2.78;;;;;;;;;;5003065;28;20429;-61
2023/08/31 08:34:50;;;;;;;6.55;2.80;;;;;;;;;;5010949;28;20424;-62
2023/08/31 08:37:16;;;;;;;8.05;2.60;;;;;;;;;;5006061;28;20504;-62
2023/08/31 08:39:43;;;;;;;5.32;2.60;;;;;;;;;;4991575;28;20049;-62
2023/08/31 08:42:10;;;;;;;6.20;2.67;;;;;;;;;;5015527;28;20053;-62
2023/08/31 08:44:37;;;;;;;5.50;2.75;;;;;;;;;;5018776;28;20036;-61
2023/08/31 08:47:03;;;;;;;3.97;2.55;;;;;;;;;;5007263;28;20037;-60
2023/08/31 08:49:35;;;;;;;9.25;2.80;;;;;;;;;;5011515;28;20489;-61
2023/08/31 08:52:02;;;;;;;4.60;2.70;;;;;;;;;;5009684;28;20042;-60
2023/08/31 08:54:28;;;;;;;7.30;2.88;;;;;;;;;;5019592;28;20041;-60
2023/08/31 08:56:55;;;;;;;6.10;2.80;;;;;;;;;;4993299;28;20485;-59
2023/08/31 08:59:21;;;;;;;7.30;2.72;;;;;;;;;;4995721;28;20045;-59
2023/08/31 09:01:48;;;;;;;6.78;2.50;;;;;;;;;;5005867;28;20045;-60
2023/08/31 09:04:14;;;;;;;6.07;2.65;;;;;;;;;;5011033;28;20037;-59
2023/08/31 09:06:40;;;;;;;7.43;2.55;;;;;;;;;;5005789;28;20042;-59
2023/08/31 09:09:10;;;;;;;6.00;2.42;;;;;;;;;;5007810;28;20053;-60
2023/08/31 09:11:36;;;;;;;5.68;2.17;;;;;;;;;;5003994;28;20050;-61
2023/08/31 09:14:16;;;;;;;9.43;2.53;;;;;;;;;;5009027;28;20057;-60
2023/08/31 09:16:46;;;;;;;;;;;;;;;;;;5012249;28;20046;-59
2023/08/31 09:19:23;;;;;;;4.55;2.55;;;;;;;;;;5011441;28;20300;-61
2023/08/31 09:21:50;;;;;;;10.05;3.05;;;;;;;;;;5012733;28;20052;-60
2023/08/31 09:24:20;;;;;;;6.32;3.03;;;;;;;;;;5010719;28;20060;-61
2023/08/31 09:26:57;;;;;;;6.35;2.40;;;;;;;;;;5012897;28;20041;-61
2023/08/31 09:29:24;;;;;;;6.82;2.88;;;;;;;;;;5010339;28;20045;-61
2023/08/31 09:31:50;;;;;;;5.53;2.42;;;;;;;;;;5008245;28;20048;-61
2023/08/31 09:34:18;;;;;;;5.05;3.08;;;;;;;;;;5013259;28;20080;-61
2023/08/31 09:36:44;;;;;;;3.60;2.22;;;;;;;;;;5011748;28;20038;-61
2023/08/31 09:39:12;;;;;;;4.43;2.42;;;;;;;;;;5013094;28;20046;-61
2023/08/31 09:42:05;;;;;;;4.72;2.25;;;;;;;;;;5012696;28;20409;-61
2023/08/31 09:44:32;;;;;;;5.95;2.20;;;;;;;;;;5005568;28;20383;-61
2023/08/31 09:46:58;;;;;;;7.45;2.10;;;;;;;;;;5005733;28;20041;-61
2023/08/31 09:49:25;;;;;;;3.97;2.58;;;;;;;;;;5016620;28;20033;-61
2023/08/31 09:51:52;;;;;;;5.13;2.15;;;;;;;;;;5017776;28;20052;-61
2023/08/31 09:54:26;;;;;;;4.47;2.25;;;;;;;;;;5016189;28;20057;-60
2023/08/31 09:56:56;;;;;;;5.72;2.38;;;;;;;;;;5009256;28;20029;-61
2023/08/31 09:59:22;;;;;;;5.30;2.40;;;;;;;;;;5008587;28;20056;-61
2023/08/31 10:01:49;;;;;;;4.13;1.92;;;;;;;;;;4981399;28;20035;-61
2023/08/31 10:04:16;;;;;;;9.77;4.43;;;;;;;;;;5008333;28;20049;-61
2023/08/31 10:06:42;;;;;;;6.57;2.35;;;;;;;;;;4993326;28;20486;-61
2023/08/31 10:09:09;;;;;;;7.50;2.25;;;;;;;;;;5008981;28;20045;-61
2023/08/31 10:11:37;;;;;;;4.28;1.92;;;;;;;;;;5010099;28;20034;-61
2023/08/31 10:14:04;;;;;;;5.93;2.28;;;;;;;;;;5003498;28;20161;-61
2023/08/31 10:16:30;;;;;;;3.97;2.25;;;;;;;;;;5010467;28;20555;-61
2023/08/31 10:18:57;;;;;;;5.07;2.28;;;;;;;;;;5009562;28;20057;-59
2023/08/31 10:21:23;;;;;;;4.68;2.28;;;;;;;;;;5007154;28;20026;-60
2023/08/31 10:23:50;;;;;;;4.65;2.08;;;;;;;;;;5007464;28;20045;-61
2023/08/31 10:26:43;;;;;;;3.30;2.15;;;;;;;;;;5003200;28;20053;-61
2023/08/31 10:29:27;;;;;;;2.97;2.08;;;;;;;;;;4987063;28;20045;-61
2023/08/31 10:31:54;;;;;;;5.15;2.22;;;;;;;;;;5013101;28;20049;-60
2023/08/31 10:34:34;;;;;;;5.55;2.13;;;;;;;;;;5012172;28;20038;-61
2023/08/31 10:37:20;;;;;;;4.20;2.10;;;;;;;;;;5002983;28;20489;-60
2023/08/31 10:39:46;;;;;;;5.95;2.08;;;;;;;;;;5001359;28;20035;-61
2023/08/31 10:42:12;;;;;;;4.38;2.03;;;;;;;;;;5005253;28;20034;-61
2023/08/31 10:44:43;;;;;;;5.55;2.17;;;;;;;;;;5001080;28;20502;-61
2023/08/31 10:47:09;;;;;;;4.25;2.10;;;;;;;;;;5011747;28;20041;-61
2023/08/31 10:49:36;;;;;;;5.50;2.22;;;;;;;;;;5003425;28;20393;-60
2023/08/31 10:52:19;;;;;;;4.65;2.38;;;;;;;;;;5011283;28;20041;-61
2023/08/31 10:54:46;;;;;;;4.55;2.13;;;;;;;;;;5014853;28;20046;-60
2023/08/31 10:57:14;;;;;;;6.28;2.10;;;;;;;;;;5000384;28;20049;-60
2023/08/31 10:59:50;;;;;;;4.40;2.40;;;;;;;;;;4987745;28;20034;-60
2023/08/31 11:02:41;;;;;;;4.22;2.20;;;;;;;;;;5001363;28;20050;-60
2023/08/31 11:05:17;;;;;;;8.07;2.03;;;;;;;;;;4991377;28;20647;-61
2023/08/31 11:07:48;;;;;;;3.78;1.90;;;;;;;;;;5008252;28;20041;-60
2023/08/31 11:10:19;;;;;;;5.75;2.20;;;;;;;;;;5011713;28;20489;-59
2023/08/31 11:12:49;;;;;;;4.68;2.33;;;;;;;;;;5011808;28;20049;-61
2023/08/31 11:15:16;;;;;;;;;;;;;;;;;;4995294;28;20040;-60
2023/08/31 11:17:42;;;;;;;3.70;1.52;;;;;;;;;;4994397;28;19913;-60
2023/08/31 11:20:13;;;;;;;4.78;2.35;;;;;;;;;;5014343;28;20049;-60
2023/08/31 11:22:41;;;;;;;9.38;2.13;;;;;;;;;;5009763;28;20041;-60
2023/08/31 11:25:09;;;;;;;4.38;2.25;;;;;;;;;;5013536;28;20038;-61
2023/08/31 11:27:35;;;;;;;5.20;2.05;;;;;;;;;;5014129;28;20029;-61
2023/08/31 11:30:01;;;;;;;3.30;2.00;;;;;;;;;;5010664;28;20493;-61
2023/08/31 11:32:27;;;;;;;6.88;2.03;;;;;;;;;;4993884;28;20110;-61
2023/08/31 11:34:53;;;;;;;2.75;1.88;;;;;;;;;;5005133;28;20031;-62
2023/08/31 11:37:20;;;;;;;5.00;2.08;;;;;;;;;;5013102;28;20512;-61
2023/08/31 11:39:53;;;;;;;4.78;1.98;;;;;;;;;;5016103;28;20049;-60
2023/08/31 11:42:21;;;;;;;5.97;2.50;;;;;;;;;;5016092;28;21797;-61
2023/08/31 11:44:49;;;;;;;5.60;2.10;;;;;;;;;;5015228;28;20045;-61
2023/08/31 11:47:17;;;;;;;5.05;1.98;;;;;;;;;;5017703;28;20026;-61
2023/08/31 11:49:44;;;;;;;6.47;2.33;;;;;;;;;;5014684;28;20057;-60
2023/08/31 11:52:11;;;;;;;4.72;2.00;;;;;;;;;;5017705;28;20038;-61
2023/08/31 11:54:42;;;;;;;4.63;2.22;;;;;;;;;;5002435;28;20401;-61
2023/08/31 11:57:09;;;;;;;5.72;2.17;;;;;;;;;;5001409;28;20183;-62
2023/08/31 11:59:37;;;;;;;4.63;2.10;;;;;;;;;;5001721;28;20041;-61
2023/08/31 12:02:07;;;;;;;4.07;1.88;;;;;;;;;;5002818;28;20054;-61
2023/08/31 12:04:43;;;;;;;3.30;1.80;;;;;;;;;;5005108;28;20436;-61
2023/08/31 12:07:09;;;;;;;4.60;1.95;;;;;;;;;;5007513;28;20056;-61
2023/08/31 12:09:36;;;;;;;4.47;2.00;;;;;;;;;;5006762;28;20052;-61
2023/08/31 12:12:04;;;;;;;4.60;2.10;;;;;;;;;;5011745;28;20045;-61
2023/08/31 12:14:30;;;;;;;4.70;2.08;;;;;;;;;;5003623;28;20045;-61
2023/08/31 12:17:05;;;;;;;3.75;1.90;;;;;;;;;;4994213;28;20060;-61
2023/08/31 12:19:33;;;;;;;4.85;2.00;;;;;;;;;;5006641;28;20113;-61
2023/08/31 12:21:59;;;;;;;3.70;1.88;;;;;;;;;;5005985;28;20046;-61
2023/08/31 12:24:25;;;;;;;4.47;1.75;;;;;;;;;;5010372;28;20034;-61
2023/08/31 12:26:54;;;;;;;3.78;1.95;;;;;;;;;;5014651;28;20476;-61
2023/08/31 12:29:21;;;;;;;;;;;;;;;;;;5010564;28;20054;-61
2023/08/31 12:31:49;;;;;;;3.85;1.90;;;;;;;;;;5009910;28;20381;-62
2023/08/31 12:34:15;;;;;;;4.07;1.70;;;;;;;;;;5012799;28;20071;-61
2023/08/31 12:36:41;;;;;;;3.75;1.60;;;;;;;;;;5017526;28;20400;-62
2023/08/31 12:39:09;;;;;;;5.65;1.98;;;;;;;;;;5014490;28;20037;-61
2023/08/31 12:41:36;;;;;;;4.60;1.55;;;;;;;;;;5006072;28;20045;-61
2023/08/31 12:44:03;;;;;;;4.65;1.83;;;;;;;;;;5011352;28;20404;-61
2023/08/31 12:46:30;;;;;;;2.80;1.70;;;;;;;;;;5007710;28;20041;-61
2023/08/31 12:48:56;;;;;;;3.35;1.70;;;;;;;;;;5013828;28;20045;-62
2023/08/31 12:51:23;;;;;;;5.32;1.60;;;;;;;;;;5007026;28;20030;-62
2023/08/31 12:53:49;;;;;;;4.38;1.80;;;;;;;;;;5014008;28;20036;-62
2023/08/31 12:56:21;;;;;;;4.47;1.73;;;;;;;;;;4985899;28;20045;-62
2023/08/31 12:58:51;;;;;;;4.38;1.67;;;;;;;;;;5006401;28;20057;-62
2023/08/31 13:01:19;;;;;;;5.13;1.70;;;;;;;;;;5004859;28;20050;-62
2023/08/31 13:03:47;;;;;;;5.25;2.13;;;;;;;;;;5004532;28;20042;-61
2023/08/31 13:06:14;;;;;;;5.05;1.85;;;;;;;;;;5010410;28;20034;-62
2023/08/31 13:08:40;;;;;;;4.63;1.90;;;;;;;;;;5005178;28;20478;-62
2023/08/31 13:11:06;;;;;;;3.42;1.90;;;;;;;;;;4990477;28;20045;-62
2023/08/31 13:13:33;;;;;;;7.40;2.10;;;;;;;;;;5004187;28;20037;-61
2023/08/31 13:15:59;;;;;;;4.20;1.73;;;;;;;;;;5011848;28;20053;-62
2023/08/31 13:18:25;;;;;;;4.45;1.90;;;;;;;;;;5007975;28;20037;-62
2023/08/31 13:20:54;;;;;;;3.58;1.88;;;;;;;;;;5008502;28;20045;-61
2023/08/31 13:23:23;;;;;;;5.82;2.00;;;;;;;;;;5009275;28;20065;-60
2023/08/31 13:25:53;;;;;;;;;;;;;;;;;;5013595;28;20082;-61
2023/08/31 13:28:19;;;;;;;3.88;1.83;;;;;;;;;;4989528;28;19920;-61
2023/08/31 13:30:46;;;;;;;6.38;2.20;;;;;;;;;;5008444;28;20485;-62
2023/08/31 13:33:12;;;;;;;4.13;1.77;;;;;;;;;;5004002;28;20049;-61
2023/08/31 13:35:38;;;;;;;4.65;2.05;;;;;;;;;;5013083;28;20052;-62
2023/08/31 13:38:04;;;;;;;3.80;1.90;;;;;;;;;;5014297;28;20048;-62
2023/08/31 13:40:30;;;;;;;3.15;1.90;;;;;;;;;;5015513;28;20034;-61
2023/08/31 13:43:02;;;;;;;4.68;2.03;;;;;;;;;;5012781;28;20041;-61
2023/08/31 13:45:32;;;;;;;4.63;2.10;;;;;;;;;;5011110;28;20033;-61
2023/08/31 13:48:00;;;;;;;3.85;1.75;;;;;;;;;;5009366;28;20049;-61
2023/08/31 13:50:26;;;;;;;3.85;1.95;;;;;;;;;;5010623;28;20053;-61
2023/08/31 13:52:53;;;;;;;4.65;1.92;;;;;;;;;;5005757;28;20049;-61
2023/08/31 13:55:19;;;;;;;4.85;2.08;;;;;;;;;;5002279;28;21315;-62
2023/08/31 13:57:46;;;;;;;4.28;2.00;;;;;;;;;;4988591;28;20030;-62
2023/08/31 14:00:12;;;;;;;6.63;2.05;;;;;;;;;;5005067;28;20045;-62
2023/08/31 14:02:40;;;;;;;3.95;2.00;;;;;;;;;;4997770;28;20054;-62
2023/08/31 14:05:06;;;;;;;4.88;2.17;;;;;;;;;;4999242;28;20041;-61
2023/08/31 14:07:33;;;;;;;4.40;1.70;;;;;;;;;;5002294;28;20069;-61
2023/08/31 14:09:59;;;;;;;6.70;1.95;;;;;;;;;;5004987;28;20053;-62
2023/08/31 14:12:28;;;;;;;4.68;2.22;;;;;;;;;;5003991;28;20034;-61
2023/08/31 14:14:55;;;;;;;3.95;1.65;;;;;;;;;;5006717;28;20030;-62
2023/08/31 14:17:21;;;;;;;3.60;1.98;;;;;;;;;;5007449;28;20047;-61
2023/08/31 14:19:47;;;;;;;5.15;1.85;;;;;;;;;;5007223;28;20034;-61
2023/08/31 14:22:13;;;;;;;7.85;2.50;;;;;;;;;;5011578;28;20030;-61
2023/08/31 14:24:39;;;;;;;3.92;1.65;;;;;;;;;;4996512;28;20036;-61
2023/08/31 14:27:06;;;;;;;7.72;2.05;;;;;;;;;;5004652;28;20029;-62
2023/08/31 14:29:32;;;;;;;5.60;2.20;;;;;;;;;;5004275;28;20049;-61
2023/08/31 14:31:58;;;;;;;5.05;1.85;;;;;;;;;;4995069;28;20041;-61
2023/08/31 14:34:25;;;;;;;4.30;1.90;;;;;;;;;;4994948;28;20053;-61
2023/08/31 14:36:52;;;;;;;5.25;2.28;;;;;;;;;;5014479;28;20033;-61
2023/08/31 14:39:18;;;;;;;8.18;2.90;;;;;;;;;;4987349;28;20053;-62
2023/08/31 14:41:44;;;;;;;5.57;2.70;;;;;;;;;;5010586;28;20046;-61
2023/08/31 14:44:10;;;;;;;6.93;3.45;;;;;;;;;;4983786;28;20432;-61
2023/08/31 14:46:36;;;;;;;8.00;3.30;;;;;;;;;;4995897;28;20405;-62
2023/08/31 14:49:04;;;;;;;6.05;2.20;;;;;;;;;;5007700;28;20053;-61